Terminal Aerodrome Forecast
Issued by NWS Boston, MA

Home | Current Version | Previous Version | Text Only | Print | Product List | Glossary On
Versions: 1 2 3 4 5 6 7 8 9 10 11 12 13 14 15 16 17 18 19 20 21 22 23
000
FTUS41 KBOX 231124
TAFPVD
TAF
KPVD 231124Z 2312/2412 26005KT P6SM -SHRA BKN040
     FM231400 30009KT P6SM VCSH BKN050
     FM231700 30013KT P6SM -SHRA BKN050
     FM232000 32016KT P6SM BKN040
     FM240000 32014G30KT P6SM BKN035
     FM240900 31015G29KT P6SM SCT250=

USA.gov is the U.S. government's official web portal to all federal, state and local government web resources and services.